KNSE/NSE METAR and TAF weather

Enter ICAO airport designator
Station Type Date Time Source
KNSE METAR 2020/04/06 11:56 UTC NOAA

KNSE 061156Z 00000KT 6SM BR SCT200 BKN250 15/14 A3010 RMK AO2 SLP178 60000 T01500144 10172 20139 $


Station Type Date Time Source
KNSE Decoded METAR 2020/04/06 11:56 UTC NOAA

MILTON WHITING FIELD (NORTH), FL, United States (KNSE) 30-44N 87-01W 60M
Apr 06, 2020 - 07:56 AM EDT / 2020.04.06 1156 UTC
Wind: Calm:0
Visibility: 6 mile(s):0
Sky conditions: mostly cloudy
Weather: mist
Temperature: 59.0 F (15.0 C)
Dew Point: 57.9 F (14.4 C)
Relative Humidity: 96%
Pressure (altimeter): 30.1 in. Hg (1019 hPa)
ob: KNSE 061156Z 00000KT 6SM BR SCT200 BKN250 15/14 A3010 RMK AO2 SLP178 60000 T01500144 10172 20139
cycle: 12

Station Type Date Time Source
KNSE TAF 2020/04/06 11:39 UTC NOAA

TAF
AMD KNSE 0611/0707 VRB06KT 9999 SCT200 BKN250 QNH3005INS
FM061700 18008KT 9999 SCT050 SCT070 BKN120 BKN250 QNH3001INS
FM070300 17008KT 9999 FEW120 BKN180 BKN250 QNH3008INS
FM070600 VRB03KT 6000 BR FEW040 SCT120 SCT250 QNH3006INS T14/0611Z T27/0619Z
AMD 1135 FN20071

Example: see airport list